createdAt,value
2023-04-23T00:02:15.874Z,97035.81
2023-04-23T00:04:50.795Z,97047.47
2023-04-23T00:07:20.041Z,97052.75
2023-04-23T00:09:47.373Z,97046.34
2023-04-23T00:12:14.812Z,96998.97
2023-04-23T00:14:42.038Z,97025.91
2023-04-23T00:17:08.989Z,97035.50
2023-04-23T00:19:36.010Z,97042.78
2023-04-23T00:22:03.243Z,97011.22
2023-04-23T00:24:32.085Z,97023.69
2023-04-23T00:26:58.956Z,97004.25
2023-04-23T00:29:25.730Z,97027.38
2023-04-23T00:31:52.520Z,97045.97
2023-04-23T00:34:19.332Z,97043.09
2023-04-23T00:36:45.993Z,97030.78
2023-04-23T00:39:12.745Z,96989.00
2023-04-23T00:41:41.910Z,97012.25
2023-04-23T00:44:12.167Z,97026.97
2023-04-23T00:46:39.002Z,97005.13
2023-04-23T00:49:06.842Z,97001.09
2023-04-23T00:51:33.502Z,97032.47
2023-04-23T00:54:00.384Z,96999.97
2023-04-23T00:56:28.237Z,97029.94
2023-04-23T00:58:55.332Z,97033.69
2023-04-23T01:01:22.212Z,97031.75
2023-04-23T01:03:50.188Z,97038.09
2023-04-23T01:06:17.636Z,97023.69
2023-04-23T01:08:47.053Z,97035.50
2023-04-23T01:11:15.026Z,97033.34
2023-04-23T01:13:43.032Z,97027.16
2023-04-23T01:16:11.696Z,97050.47
2023-04-23T01:18:41.241Z,97041.06
2023-04-23T01:21:15.254Z,97043.44
2023-04-23T01:23:42.201Z,97047.63
2023-04-23T01:26:10.910Z,97027.38
2023-04-23T01:28:38.169Z,97036.47
2023-04-23T01:31:05.297Z,97028.50
2023-04-23T01:33:32.101Z,97019.09
2023-04-23T01:36:00.147Z,97019.78
2023-04-23T01:38:28.797Z,97028.84
2023-04-23T01:40:55.456Z,97012.16
2023-04-23T01:43:25.008Z,97006.19
2023-04-23T01:45:53.052Z,97049.84
2023-04-23T01:48:20.128Z,97044.06
2023-04-23T01:50:47.068Z,97025.19
2023-04-23T01:53:14.010Z,97031.97
2023-04-23T01:55:41.423Z,97014.28
2023-04-23T01:58:08.437Z,97033.34
2023-04-23T02:00:35.220Z,97011.75
2023-04-23T02:03:02.042Z,97030.94
2023-04-23T02:05:29.763Z,97030.13
2023-04-23T02:07:57.353Z,97017.41
2023-04-23T02:10:24.067Z,97011.56
2023-04-23T02:12:50.789Z,97014.88
2023-04-23T02:15:18.196Z,97039.25
2023-04-23T02:17:44.906Z,97031.91
2023-04-23T02:20:12.568Z,97016.94
2023-04-23T02:22:42.210Z,97017.34
2023-04-23T02:25:09.668Z,97015.75
2023-04-23T02:27:36.777Z,97024.34
2023-04-23T02:30:04.597Z,97033.28
2023-04-23T02:32:31.493Z,97027.13
2023-04-23T02:34:59.814Z,97029.13
2023-04-23T02:37:27.230Z,97027.53
2023-04-23T02:39:54.429Z,96997.16
2023-04-23T02:42:21.208Z,97025.13
2023-04-23T02:44:47.883Z,96992.88
2023-04-23T02:47:14.777Z,97011.13
2023-04-23T02:49:41.437Z,97024.09
2023-04-23T02:52:08.249Z,96992.66
2023-04-23T02:54:37.262Z,96991.34
2023-04-23T02:57:05.248Z,97014.91
2023-04-23T02:59:32.335Z,97021.13
2023-04-23T03:01:59.263Z,97016.16
2023-04-23T03:04:26.277Z,97017.16
2023-04-23T03:06:52.940Z,97010.38
2023-04-23T03:09:19.829Z,97018.84
2023-04-23T03:11:46.546Z,97015.06
2023-04-23T03:14:13.236Z,97024.16
2023-04-23T03:16:40.044Z,97001.78
2023-04-23T03:19:06.795Z,96997.69
2023-04-23T03:21:33.472Z,97009.16
2023-04-23T03:24:00.474Z,96997.91
2023-04-23T03:26:27.119Z,97019.06
2023-04-23T03:28:54.156Z,97009.66
2023-04-23T03:31:22.278Z,97018.94
2023-04-23T03:33:49.002Z,97023.16
2023-04-23T03:36:24.012Z,97019.06
2023-04-23T03:38:50.639Z,97019.28
2023-04-23T03:41:17.301Z,97017.56
2023-04-23T03:43:44.196Z,97004.59
2023-04-23T03:46:10.932Z,97018.97
2023-04-23T03:48:37.608Z,97017.16
2023-04-23T03:51:04.516Z,97022.66
2023-04-23T03:53:31.163Z,97000.19
2023-04-23T03:55:57.984Z,97013.34
2023-04-23T03:58:24.794Z,97032.34
2023-04-23T04:00:51.825Z,97023.75
2023-04-23T04:03:18.660Z,97023.28
2023-04-23T04:05:45.643Z,97014.88
2023-04-23T04:08:12.394Z,97014.16
2023-04-23T04:10:39.117Z,97013.31
2023-04-23T04:13:05.814Z,96999.13
2023-04-23T04:15:33.269Z,97027.50
2023-04-23T04:18:01.474Z,96997.13
2023-04-23T04:20:31.148Z,97015.28
2023-04-23T04:22:57.922Z,97005.50
2023-04-23T04:25:24.718Z,97016.81
2023-04-23T04:27:51.367Z,97025.91
2023-04-23T04:30:18.871Z,97017.13
2023-04-23T04:32:46.633Z,97016.25
2023-04-23T04:35:14.664Z,97012.41
2023-04-23T04:37:42.077Z,96993.03
2023-04-23T04:40:11.682Z,97016.88
2023-04-23T04:42:39.690Z,96995.38
2023-04-23T04:45:08.861Z,97008.69
2023-04-23T04:47:36.708Z,97019.44
2023-04-23T04:50:04.500Z,97011.66
2023-04-23T04:52:31.883Z,97010.66
2023-04-23T04:54:58.923Z,97014.69
2023-04-23T04:57:25.838Z,97004.34
2023-04-23T04:59:52.652Z,96994.94
2023-04-23T05:02:20.368Z,96987.63
2023-04-23T05:04:47.199Z,97009.13
2023-04-23T05:07:13.918Z,97014.78
2023-04-23T05:09:42.949Z,96998.03
2023-04-23T05:12:11.138Z,97013.75
2023-04-23T05:14:37.891Z,96995.63
2023-04-23T05:17:04.670Z,96995.97
2023-04-23T05:19:32.498Z,96999.34
2023-04-23T05:21:59.249Z,96992.09
2023-04-23T05:24:26.592Z,96981.97
2023-04-23T05:26:53.220Z,97001.13
2023-04-23T05:29:19.944Z,97004.81
2023-04-23T05:31:46.848Z,96985.91
2023-04-23T05:34:13.508Z,96980.41
2023-04-23T05:36:40.451Z,96991.22
2023-04-23T05:39:07.128Z,96990.63
2023-04-23T05:41:34.275Z,96994.09
2023-04-23T05:44:01.289Z,97007.47
2023-04-23T05:46:28.259Z,96980.00
2023-04-23T05:48:54.996Z,96977.34
2023-04-23T05:51:22.790Z,96992.38
2023-04-23T05:53:49.594Z,96984.25
2023-04-23T05:56:17.312Z,96981.53
2023-04-23T05:58:44.163Z,96968.31
2023-04-23T06:01:10.888Z,96958.44
2023-04-23T06:03:38.094Z,96982.41
2023-04-23T06:06:05.035Z,97005.94
2023-04-23T06:08:31.795Z,96992.00
2023-04-23T06:10:58.917Z,96961.75
2023-04-23T06:13:25.882Z,96984.38
2023-04-23T06:15:52.729Z,96987.63
2023-04-23T06:18:19.438Z,96992.47
2023-04-23T06:20:48.736Z,96988.97
2023-04-23T06:23:15.992Z,96967.31
2023-04-23T06:25:42.720Z,96983.91
2023-04-23T06:28:09.366Z,96990.19
2023-04-23T06:30:36.253Z,96991.00
2023-04-23T06:33:02.990Z,96983.88
2023-04-23T06:35:31.408Z,96990.16
2023-04-23T06:37:58.239Z,96972.38
2023-04-23T06:40:25.159Z,96987.72
2023-04-23T06:42:51.922Z,96963.16
2023-04-23T06:45:18.916Z,96980.81
2023-04-23T06:47:45.778Z,96970.75
2023-04-23T06:50:12.762Z,96970.97
2023-04-23T06:52:41.207Z,96978.09
2023-04-23T06:55:09.096Z,96976.19
2023-04-23T06:57:36.272Z,96970.75
2023-04-23T07:00:03.674Z,96972.72
2023-04-23T07:02:32.580Z,96978.69
2023-04-23T07:04:59.288Z,96962.03
2023-04-23T07:07:26.333Z,96967.47
2023-04-23T07:09:53.130Z,96958.69
2023-04-23T07:12:20.057Z,96959.44
2023-04-23T07:14:47.662Z,96960.47
2023-04-23T07:17:23.495Z,96949.97
2023-04-23T07:19:53.781Z,96934.06
2023-04-23T07:22:20.591Z,96956.69
2023-04-23T07:24:47.253Z,96958.91
2023-04-23T07:27:14.015Z,96966.88
2023-04-23T07:29:40.646Z,96945.75
2023-04-23T07:32:07.434Z,96935.72
2023-04-23T07:34:35.476Z,96955.53
2023-04-23T07:37:03.604Z,96946.00
2023-04-23T07:39:30.336Z,96946.78
2023-04-23T07:41:57.206Z,96964.28
2023-04-23T07:44:23.822Z,96943.34
2023-04-23T07:46:51.226Z,96947.34
2023-04-23T07:49:18.105Z,96929.13
2023-04-23T07:51:45.994Z,96932.72
2023-04-23T07:54:12.698Z,96961.22
2023-04-23T07:56:40.521Z,96940.19
2023-04-23T07:59:09.977Z,96945.09
2023-04-23T08:01:36.781Z,96929.41
2023-04-23T08:04:03.954Z,96937.78
2023-04-23T08:06:33.777Z,96944.66
2023-04-23T08:09:06.716Z,96947.72
2023-04-23T08:11:39.850Z,96950.34
2023-04-23T08:14:08.775Z,96865.19
2023-04-23T08:16:38.655Z,96935.69
2023-04-23T08:19:10.061Z,96889.53
2023-04-23T08:21:42.045Z,96889.06
2023-04-23T08:24:09.170Z,96875.59
2023-04-23T08:26:36.291Z,96889.75
2023-04-23T08:29:11.495Z,96912.09
2023-04-23T08:31:38.428Z,96905.59
2023-04-23T08:34:05.197Z,96925.38
2023-04-23T08:36:34.884Z,96924.38
2023-04-23T08:39:01.764Z,96931.88
2023-04-23T08:41:39.933Z,96902.56
2023-04-23T08:44:12.281Z,96924.38
2023-04-23T08:46:43.656Z,96915.56
2023-04-23T08:49:19.012Z,96899.97
2023-04-23T08:52:00.272Z,96926.69
2023-04-23T08:54:28.725Z,96905.56
2023-04-23T08:56:57.722Z,96922.41
2023-04-23T08:59:30.971Z,96910.69
2023-04-23T09:01:57.949Z,96913.72
2023-04-23T09:04:26.308Z,96883.63
2023-04-23T09:06:53.016Z,96905.19
2023-04-23T09:09:23.909Z,96905.75
2023-04-23T09:11:52.254Z,96893.22
2023-04-23T09:14:22.764Z,96884.44
2023-04-23T09:16:51.331Z,96890.53
2023-04-23T09:19:19.495Z,96902.25
2023-04-23T09:21:47.043Z,96860.75
2023-04-23T09:24:15.117Z,96856.97
2023-04-23T09:26:59.944Z,96885.59
2023-04-23T09:29:27.086Z,96889.09
2023-04-23T09:32:08.450Z,96897.75
2023-04-23T09:34:40.158Z,96904.22
2023-04-23T09:37:11.682Z,96885.84
2023-04-23T09:39:39.864Z,96869.44
2023-04-23T09:42:08.626Z,96878.53
2023-04-23T09:44:35.474Z,96899.13
2023-04-23T09:47:15.415Z,96886.06
2023-04-23T09:49:49.501Z,96883.22
2023-04-23T09:52:17.135Z,96898.13
2023-04-23T09:54:46.901Z,96872.66
2023-04-23T09:57:13.575Z,96890.31
2023-04-23T10:02:13.087Z,96866.94
2023-04-23T10:04:40.324Z,96874.56
2023-04-23T10:07:18.841Z,96838.41
2023-04-23T10:09:47.507Z,96870.84
2023-04-23T10:14:46.976Z,96870.31
2023-04-23T10:17:14.133Z,96848.19
2023-04-23T10:19:43.799Z,96855.84
2023-04-23T10:22:19.299Z,96853.56
2023-04-23T10:24:51.808Z,96854.59
2023-04-23T10:29:50.042Z,96837.88
2023-04-23T10:32:18.603Z,96816.03
2023-04-23T10:34:45.778Z,96830.38
2023-04-23T10:37:13.634Z,96834.59
2023-04-23T10:39:44.510Z,96815.13
2023-04-23T10:42:13.645Z,96818.16
2023-04-23T10:47:17.644Z,96812.75
2023-04-23T10:49:44.917Z,96814.75
2023-04-23T10:52:20.685Z,96828.94
2023-04-23T10:54:50.351Z,96830.84
2023-04-23T10:57:17.008Z,96805.81
2023-04-23T10:59:59.153Z,96800.75
2023-04-23T11:02:26.279Z,96816.56
2023-04-23T11:04:58.509Z,96817.78
2023-04-23T11:07:33.439Z,96787.81
2023-04-23T11:10:10.909Z,96816.00
2023-04-23T11:12:40.042Z,96815.09
2023-04-23T11:15:19.102Z,96818.16
2023-04-23T11:17:47.611Z,96821.72
2023-04-23T11:20:15.795Z,96795.78
2023-04-23T11:22:44.078Z,96797.59
2023-04-23T11:25:12.868Z,96809.69
2023-04-23T11:27:44.399Z,96811.19
2023-04-23T11:30:16.584Z,96793.84
2023-04-23T11:32:50.024Z,96791.81
2023-04-23T11:35:19.026Z,96799.00
2023-04-23T11:37:48.466Z,96783.00
2023-04-23T11:40:19.791Z,96794.31
2023-04-23T11:42:51.162Z,96783.63
2023-04-23T11:45:24.718Z,96791.94
2023-04-23T11:47:59.425Z,96777.09
2023-04-23T11:50:30.171Z,96783.31
2023-04-23T11:52:57.356Z,96767.16
2023-04-23T11:55:24.756Z,96780.75
2023-04-23T11:57:53.432Z,96769.50
2023-04-23T12:00:25.384Z,96784.03
2023-04-23T12:02:52.967Z,96778.06
2023-04-23T12:05:21.712Z,96762.09
2023-04-23T12:07:52.139Z,96760.88
2023-04-23T12:10:23.356Z,96778.03
2023-04-23T12:12:53.621Z,96769.94
2023-04-23T12:15:21.063Z,96762.53
2023-04-23T12:17:51.937Z,96748.22
2023-04-23T12:20:22.208Z,96775.38
2023-04-23T12:22:49.048Z,96743.34
2023-04-23T12:25:16.222Z,96734.38
2023-04-23T12:27:45.425Z,96763.00
2023-04-23T12:30:12.448Z,96731.59
2023-04-23T12:32:39.302Z,96734.44
2023-04-23T12:35:06.746Z,96750.59
2023-04-23T12:37:36.820Z,96745.28
2023-04-23T12:40:07.810Z,96765.28
2023-04-23T12:42:35.373Z,96741.34
2023-04-23T12:45:08.099Z,96749.38
2023-04-23T12:47:35.239Z,96700.75
2023-04-23T12:50:04.061Z,96733.81
2023-04-23T12:52:31.414Z,96753.00
2023-04-23T12:55:00.639Z,96679.63
2023-04-23T12:57:28.132Z,96759.84
2023-04-23T12:59:55.292Z,96724.03
2023-04-23T13:02:22.896Z,96742.03
2023-04-23T13:04:49.672Z,96718.78
2023-04-23T13:07:16.388Z,96724.41
2023-04-23T13:09:43.399Z,96712.06
2023-04-23T13:12:10.779Z,96720.81
2023-04-23T13:14:37.633Z,96716.50
2023-04-23T13:17:04.308Z,96706.34
2023-04-23T13:19:32.513Z,96718.97
2023-04-23T13:21:59.236Z,96711.16
2023-04-23T13:24:25.918Z,96714.91
2023-04-23T13:26:52.727Z,96717.28
2023-04-23T13:29:19.479Z,96708.47
2023-04-23T13:31:46.200Z,96693.25
2023-04-23T13:34:12.990Z,96679.56
2023-04-23T13:36:41.692Z,96689.38
2023-04-23T13:39:13.296Z,96685.41
2023-04-23T13:41:43.072Z,96704.13
2023-04-23T13:44:09.908Z,96697.16
2023-04-23T13:46:36.770Z,96704.63
2023-04-23T13:49:03.698Z,96675.31
2023-04-23T13:51:35.720Z,96666.34
2023-04-23T13:54:03.658Z,96664.75
2023-04-23T13:56:31.364Z,96654.66
2023-04-23T14:01:33.570Z,96683.63
2023-04-23T14:04:00.416Z,96670.09
2023-04-23T14:06:28.219Z,96678.53
2023-04-23T14:08:55.146Z,96628.63
2023-04-23T14:11:22.824Z,96653.38
2023-04-23T14:13:49.798Z,96653.31
2023-04-23T14:16:17.729Z,96658.13
2023-04-23T14:18:44.606Z,96672.78
2023-04-23T14:21:15.670Z,96645.31
2023-04-23T14:23:45.772Z,96656.34
2023-04-23T14:26:22.886Z,96672.34
2023-04-23T14:28:52.220Z,96665.59
2023-04-23T14:31:19.028Z,96653.38
2023-04-23T14:33:45.754Z,96647.75
2023-04-23T14:36:12.536Z,96653.28
2023-04-23T14:42:17.784Z,96659.25
2023-04-23T14:48:21.939Z,96651.97
2023-04-23T14:54:25.937Z,96658.47
2023-04-23T15:00:29.575Z,96641.97
2023-04-23T15:06:50.304Z,96586.00
2023-04-23T15:13:01.635Z,96654.97
2023-04-23T15:19:06.819Z,96633.16
2023-04-23T15:25:11.655Z,96635.34
2023-04-23T15:31:15.159Z,96627.38
2023-04-23T15:40:56.899Z,96635.91
2023-04-23T15:44:20.306Z,96627.31
2023-04-23T15:50:26.845Z,96622.38
2023-04-23T15:56:30.669Z,96588.13
2023-04-23T16:02:34.809Z,96607.88
2023-04-23T16:05:58.129Z,96620.16
2023-04-23T16:08:24.907Z,96621.13
2023-04-23T16:10:51.612Z,96607.44
2023-04-23T16:13:18.426Z,96604.81
2023-04-23T16:15:45.778Z,96607.72
2023-04-23T16:18:13.687Z,96564.22
2023-04-23T16:20:40.680Z,96567.44
2023-04-23T16:23:07.734Z,96608.28
2023-04-23T16:25:34.923Z,96612.34
2023-04-23T16:28:01.867Z,96597.84
2023-04-23T16:30:28.664Z,96593.66
2023-04-23T16:32:55.567Z,96590.31
2023-04-23T16:35:22.640Z,96570.44
2023-04-23T16:37:49.552Z,96574.88
2023-04-23T16:40:19.514Z,96587.13
2023-04-23T16:42:48.832Z,96560.88
2023-04-23T16:45:15.835Z,96597.47
2023-04-23T16:47:43.887Z,96568.50
2023-04-23T16:50:12.761Z,96554.78
2023-04-23T16:52:39.516Z,96590.09
2023-04-23T16:55:07.348Z,96604.66
2023-04-23T16:57:37.669Z,96600.00
2023-04-23T17:00:08.302Z,96591.84
2023-04-23T17:02:45.528Z,96571.91
2023-04-23T17:05:12.482Z,96592.38
2023-04-23T17:07:40.929Z,96599.13
2023-04-23T17:10:08.776Z,96585.06
2023-04-23T17:12:35.653Z,96579.94
2023-04-23T17:15:02.322Z,96599.66
2023-04-23T17:17:29.243Z,96584.84
2023-04-23T17:19:56.383Z,96611.25
2023-04-23T17:22:26.009Z,96558.28
2023-04-23T17:25:08.864Z,96604.28
2023-04-23T17:27:49.034Z,96577.59
2023-04-23T17:30:16.928Z,96616.53
2023-04-23T17:33:07.510Z,96622.50
2023-04-23T17:35:34.331Z,96584.38
2023-04-23T17:38:01.570Z,96617.03
2023-04-23T17:40:28.313Z,96594.66
2023-04-23T17:42:55.388Z,96604.09
2023-04-23T17:45:22.166Z,96588.34
2023-04-23T17:47:48.961Z,96606.84
2023-04-23T17:50:16.025Z,96603.69
2023-04-23T17:52:44.392Z,96622.53
2023-04-23T17:55:11.823Z,96627.25
2023-04-23T17:57:38.660Z,96585.94
2023-04-23T18:00:10.104Z,96611.50
2023-04-23T18:02:40.684Z,96629.53
2023-04-23T18:05:09.319Z,96615.34
2023-04-23T18:07:37.354Z,96598.78
2023-04-23T18:10:05.301Z,96618.44
2023-04-23T18:12:32.361Z,96623.88
2023-04-23T18:15:02.137Z,96631.63
2023-04-23T18:17:28.959Z,96627.22
2023-04-23T18:19:56.037Z,96622.06
2023-04-23T18:22:23.041Z,96628.66
2023-04-23T18:24:50.735Z,96640.81
2023-04-23T18:27:18.172Z,96644.28
2023-04-23T18:29:45.557Z,96612.75
2023-04-23T18:32:20.882Z,96597.75
2023-04-23T18:34:54.815Z,96616.84
2023-04-23T18:37:41.817Z,96645.97
2023-04-23T18:40:09.416Z,96617.53
2023-04-23T18:42:36.196Z,96611.56
2023-04-23T18:45:05.727Z,96637.13
2023-04-23T18:47:38.559Z,96593.75
2023-04-23T18:50:10.516Z,96603.81
2023-04-23T18:52:37.236Z,96621.47
2023-04-23T18:55:04.049Z,96619.34
2023-04-23T18:57:30.783Z,96650.06
2023-04-23T18:59:57.476Z,96616.47
2023-04-23T19:05:01.280Z,96596.16
2023-04-23T19:07:28.254Z,96597.16
2023-04-23T19:09:55.026Z,96646.34
2023-04-23T19:12:22.056Z,96588.56
2023-04-23T19:14:48.769Z,96599.91
2023-04-23T19:17:18.665Z,96620.06
2023-04-23T19:19:46.307Z,96640.59
2023-04-23T19:22:13.116Z,96644.09
2023-04-23T19:24:40.996Z,96643.69
2023-04-23T19:27:07.752Z,96638.13
2023-04-23T19:29:34.539Z,96629.38
2023-04-23T19:32:01.329Z,96619.06
2023-04-23T19:34:28.016Z,96613.78
2023-04-23T19:36:54.745Z,96645.16
2023-04-23T19:40:00.772Z,96644.13
2023-04-23T19:42:32.658Z,96649.84
2023-04-23T19:45:00.439Z,96632.84
2023-04-23T19:47:29.711Z,96628.03
2023-04-23T19:49:56.906Z,96574.88
2023-04-23T19:55:42.607Z,96516.53
2023-04-23T19:58:16.278Z,96520.97
2023-04-23T20:00:54.024Z,96529.94
2023-04-23T20:03:21.374Z,96505.41
2023-04-23T20:06:10.417Z,96579.06
2023-04-23T20:09:08.444Z,96556.97
2023-04-23T20:11:38.781Z,96570.00
2023-04-23T20:14:09.618Z,96580.28
2023-04-23T20:17:14.744Z,96639.94
2023-04-23T20:19:51.515Z,96559.19
2023-04-23T20:22:20.020Z,96557.44
2023-04-23T20:24:50.813Z,96510.06
2023-04-23T20:27:21.530Z,96647.41
2023-04-23T20:29:51.634Z,96545.31
2023-04-23T20:32:24.481Z,96580.91
2023-04-23T20:34:52.823Z,96548.81
2023-04-23T20:37:21.750Z,96594.13
2023-04-23T20:39:50.106Z,96601.34
2023-04-23T20:42:19.825Z,96633.88
2023-04-23T20:44:50.579Z,96604.72
2023-04-23T20:47:17.969Z,96637.25
2023-04-23T20:49:48.882Z,96627.41
2023-04-23T20:52:15.764Z,96619.94
2023-04-23T20:54:45.779Z,96605.22
2023-04-23T20:57:12.441Z,96631.22
2023-04-23T20:59:39.164Z,96598.78
2023-04-23T21:02:08.720Z,96598.00
2023-04-23T21:04:37.016Z,96604.88
2023-04-23T21:07:05.316Z,96608.63
2023-04-23T21:09:32.137Z,96617.44
2023-04-23T21:11:59.523Z,96613.16
2023-04-23T21:14:29.344Z,96615.72
2023-04-23T21:17:01.178Z,96596.66
2023-04-23T21:19:29.933Z,96620.28
2023-04-23T21:22:37.221Z,96624.25
2023-04-23T21:25:04.412Z,96593.25
2023-04-23T21:27:31.631Z,96580.78
2023-04-23T21:30:06.208Z,96608.09
2023-04-23T21:32:33.174Z,96626.44
2023-04-23T21:34:59.880Z,96610.03
2023-04-23T21:37:26.493Z,96621.69
2023-04-23T21:39:53.213Z,96616.41
2023-04-23T21:42:21.809Z,96623.09
2023-04-23T21:44:48.468Z,96622.63
2023-04-23T21:47:15.400Z,96602.69
2023-04-23T21:49:43.661Z,96623.16
2023-04-23T21:52:10.611Z,96607.88
2023-04-23T21:54:37.454Z,96613.31
2023-04-23T21:57:04.113Z,96614.72
2023-04-23T21:59:36.765Z,96615.47
2023-04-23T22:02:09.550Z,96603.59
2023-04-23T22:04:36.757Z,96605.97
2023-04-23T22:07:05.717Z,96592.72
2023-04-23T22:09:32.528Z,96615.72
2023-04-23T22:12:02.384Z,96617.94
2023-04-23T22:14:29.641Z,96625.03
2023-04-23T22:16:58.825Z,96595.00
2023-04-23T22:19:26.261Z,96619.88
2023-04-23T22:21:52.984Z,96618.81
2023-04-23T22:24:19.741Z,96608.91
2023-04-23T22:26:47.338Z,96583.66
2023-04-23T22:29:14.133Z,96612.66
2023-04-23T22:31:41.048Z,96609.25
2023-04-23T22:34:08.131Z,96593.94
2023-04-23T22:36:36.041Z,96602.41
2023-04-23T22:39:04.779Z,96583.50
2023-04-23T22:41:33.930Z,96583.16
2023-04-23T22:44:01.236Z,96586.50
2023-04-23T22:46:29.015Z,96588.78
2023-04-23T22:48:55.856Z,96587.19
2023-04-23T22:51:22.528Z,96541.41
2023-04-23T22:53:49.178Z,96588.69
2023-04-23T22:56:15.965Z,96599.66
2023-04-23T22:58:42.671Z,96583.84
2023-04-23T23:01:09.476Z,96585.69
2023-04-23T23:03:36.504Z,96573.53
2023-04-23T23:06:03.431Z,96580.22
2023-04-23T23:08:30.087Z,96587.66
2023-04-23T23:10:56.988Z,96579.41
2023-04-23T23:13:23.694Z,96583.72
2023-04-23T23:15:50.549Z,96596.97
2023-04-23T23:18:17.717Z,96596.19
2023-04-23T23:20:45.351Z,96581.59
2023-04-23T23:23:12.182Z,96579.72
2023-04-23T23:25:39.046Z,96577.59
2023-04-23T23:28:06.072Z,96582.59
2023-04-23T23:30:32.746Z,96583.66
2023-04-23T23:32:59.706Z,96547.09
2023-04-23T23:35:26.364Z,96578.69
2023-04-23T23:37:53.048Z,96566.34
2023-04-23T23:40:20.003Z,96577.78
2023-04-23T23:42:46.676Z,96573.03
2023-04-23T23:45:13.542Z,96575.41
2023-04-23T23:47:40.272Z,96547.38
2023-04-23T23:50:07.543Z,96549.69
2023-04-23T23:52:36.403Z,96565.69
2023-04-23T23:55:03.230Z,96551.09
2023-04-23T23:57:29.883Z,96573.28
2023-04-23T23:59:57.212Z,96554.41
